sensor_id;sensor_type;location;lat;lon;timestamp;P1;durP1;ratioP1;P2;durP2;ratioP2
58446;SDS011;44240;51.840;7.258;2022-11-15T00:01:09;133.43;;;120.07;;
58446;SDS011;44240;51.840;7.258;2022-11-15T00:03:38;133.47;;;120.13;;
58446;SDS011;44240;51.840;7.258;2022-11-15T00:06:04;133.80;;;120.40;;
58446;SDS011;44240;51.840;7.258;2022-11-15T00:08:30;131.73;;;118.67;;
58446;SDS011;44240;51.840;7.258;2022-11-15T00:10:57;132.50;;;119.33;;
58446;SDS011;44240;51.840;7.258;2022-11-15T00:13:24;132.23;;;119.13;;
58446;SDS011;44240;51.840;7.258;2022-11-15T00:15:50;132.33;;;119.20;;
58446;SDS011;44240;51.840;7.258;2022-11-15T00:18:16;131.87;;;118.77;;
58446;SDS011;44240;51.840;7.258;2022-11-15T00:20:42;132.27;;;119.20;;
58446;SDS011;44240;51.840;7.258;2022-11-15T00:23:08;131.87;;;118.83;;
58446;SDS011;44240;51.840;7.258;2022-11-15T00:25:34;131.83;;;118.83;;
58446;SDS011;44240;51.840;7.258;2022-11-15T00:27:59;131.93;;;118.93;;
58446;SDS011;44240;51.840;7.258;2022-11-15T00:30:26;131.73;;;118.80;;
58446;SDS011;44240;51.840;7.258;2022-11-15T00:32:52;131.40;;;118.50;;
58446;SDS011;44240;51.840;7.258;2022-11-15T00:35:17;130.67;;;117.87;;
58446;SDS011;44240;51.840;7.258;2022-11-15T00:37:44;130.73;;;117.97;;
58446;SDS011;44240;51.840;7.258;2022-11-15T00:40:11;128.77;;;116.30;;
58446;SDS011;44240;51.840;7.258;2022-11-15T00:42:37;128.77;;;116.37;;
58446;SDS011;44240;51.840;7.258;2022-11-15T00:45:03;128.23;;;115.93;;
58446;SDS011;44240;51.840;7.258;2022-11-15T00:47:29;127.23;;;115.10;;
58446;SDS011;44240;51.840;7.258;2022-11-15T00:49:54;126.80;;;114.77;;
58446;SDS011;44240;51.840;7.258;2022-11-15T00:52:20;125.90;;;113.97;;
58446;SDS011;44240;51.840;7.258;2022-11-15T00:54:45;125.90;;;114.00;;
58446;SDS011;44240;51.840;7.258;2022-11-15T00:57:11;124.57;;;112.87;;
58446;SDS011;44240;51.840;7.258;2022-11-15T00:59:36;124.93;;;113.17;;
58446;SDS011;44240;51.840;7.258;2022-11-15T01:02:02;125.30;;;113.53;;
58446;SDS011;44240;51.840;7.258;2022-11-15T01:04:27;125.57;;;113.70;;
58446;SDS011;44240;51.840;7.258;2022-11-15T01:06:53;124.90;;;113.13;;
58446;SDS011;44240;51.840;7.258;2022-11-15T01:09:19;125.73;;;113.83;;
58446;SDS011;44240;51.840;7.258;2022-11-15T01:11:44;124.90;;;113.20;;
58446;SDS011;44240;51.840;7.258;2022-11-15T01:14:10;124.73;;;113.03;;
58446;SDS011;44240;51.840;7.258;2022-11-15T01:16:36;126.93;;;114.90;;
58446;SDS011;44240;51.840;7.258;2022-11-15T01:19:01;126.97;;;114.83;;
58446;SDS011;44240;51.840;7.258;2022-11-15T01:21:27;128.30;;;115.97;;
58446;SDS011;44240;51.840;7.258;2022-11-15T01:23:53;129.60;;;117.00;;
58446;SDS011;44240;51.840;7.258;2022-11-15T01:26:20;128.07;;;115.77;;
58446;SDS011;44240;51.840;7.258;2022-11-15T01:28:46;130.80;;;118.03;;
58446;SDS011;44240;51.840;7.258;2022-11-15T01:31:13;130.53;;;117.83;;
58446;SDS011;44240;51.840;7.258;2022-11-15T01:33:40;130.40;;;117.70;;
58446;SDS011;44240;51.840;7.258;2022-11-15T01:36:07;130.33;;;117.60;;
58446;SDS011;44240;51.840;7.258;2022-11-15T01:38:37;130.27;;;117.57;;
58446;SDS011;44240;51.840;7.258;2022-11-15T01:41:03;131.30;;;118.40;;
58446;SDS011;44240;51.840;7.258;2022-11-15T01:43:30;131.37;;;118.47;;
58446;SDS011;44240;51.840;7.258;2022-11-15T01:46:44;133.83;;;120.57;;
58446;SDS011;44240;51.840;7.258;2022-11-15T01:48:54;132.40;;;119.38;;
58446;SDS011;44240;51.840;7.258;2022-11-15T01:51:22;131.23;;;118.23;;
58446;SDS011;44240;51.840;7.258;2022-11-15T01:53:52;136.63;;;122.70;;
58446;SDS011;44240;51.840;7.258;2022-11-15T01:56:25;137.00;;;122.97;;
58446;SDS011;44240;51.840;7.258;2022-11-15T01:58:55;136.50;;;122.60;;
58446;SDS011;44240;51.840;7.258;2022-11-15T02:01:23;135.53;;;121.73;;
58446;SDS011;44240;51.840;7.258;2022-11-15T02:03:52;135.47;;;121.70;;
58446;SDS011;44240;51.840;7.258;2022-11-15T02:08:51;135.10;;;121.50;;
58446;SDS011;44240;51.840;7.258;2022-11-15T02:11:17;135.00;;;121.37;;
58446;SDS011;44240;51.840;7.258;2022-11-15T02:13:43;134.47;;;120.97;;
58446;SDS011;44240;51.840;7.258;2022-11-15T02:16:13;134.07;;;120.63;;
58446;SDS011;44240;51.840;7.258;2022-11-15T02:18:55;132.43;;;119.27;;
58446;SDS011;44240;51.840;7.258;2022-11-15T02:21:28;133.55;;;120.25;;
58446;SDS011;44240;51.840;7.258;2022-11-15T02:29:57;130.63;;;117.87;;
58446;SDS011;44240;51.840;7.258;2022-11-15T02:41:45;129.60;;;117.10;;
58446;SDS011;44240;51.840;7.258;2022-11-15T02:44:30;127.27;;;115.03;;
58446;SDS011;44240;51.840;7.258;2022-11-15T02:46:58;131.63;;;118.73;;
58446;SDS011;44240;51.840;7.258;2022-11-15T02:49:43;128.30;;;115.90;;
58446;SDS011;44240;51.840;7.258;2022-11-15T02:52:19;128.77;;;116.40;;
58446;SDS011;44240;51.840;7.258;2022-11-15T02:58:23;126.47;;;114.50;;
58446;SDS011;44240;51.840;7.258;2022-11-15T03:01:20;125.57;;;113.70;;
58446;SDS011;44240;51.840;7.258;2022-11-15T03:07:20;125.57;;;113.73;;
58446;SDS011;44240;51.840;7.258;2022-11-15T03:09:34;125.27;;;113.43;;
58446;SDS011;44240;51.840;7.258;2022-11-15T03:12:12;122.35;;;110.97;;
58446;SDS011;44240;51.840;7.258;2022-11-15T03:15:00;124.87;;;113.17;;
58446;SDS011;44240;51.840;7.258;2022-11-15T03:17:30;124.67;;;113.00;;
58446;SDS011;44240;51.840;7.258;2022-11-15T03:20:19;123.97;;;112.50;;
58446;SDS011;44240;51.840;7.258;2022-11-15T03:22:46;123.37;;;111.93;;
58446;SDS011;44240;51.840;7.258;2022-11-15T03:25:15;122.93;;;111.63;;
58446;SDS011;44240;51.840;7.258;2022-11-15T03:27:45;121.70;;;110.57;;
58446;SDS011;44240;51.840;7.258;2022-11-15T03:30:14;122.23;;;111.10;;
58446;SDS011;44240;51.840;7.258;2022-11-15T03:32:48;119.87;;;109.10;;
58446;SDS011;44240;51.840;7.258;2022-11-15T03:35:18;120.57;;;109.70;;
58446;SDS011;44240;51.840;7.258;2022-11-15T03:38:06;121.40;;;110.43;;
58446;SDS011;44240;51.840;7.258;2022-11-15T03:40:35;116.90;;;106.50;;
58446;SDS011;44240;51.840;7.258;2022-11-15T03:43:08;117.97;;;107.37;;
58446;SDS011;44240;51.840;7.258;2022-11-15T03:45:47;116.77;;;106.33;;
58446;SDS011;44240;51.840;7.258;2022-11-15T03:48:21;116.40;;;106.10;;
58446;SDS011;44240;51.840;7.258;2022-11-15T03:50:49;116.27;;;105.97;;
58446;SDS011;44240;51.840;7.258;2022-11-15T03:53:15;117.10;;;106.70;;
58446;SDS011;44240;51.840;7.258;2022-11-15T03:55:40;117.03;;;106.60;;
58446;SDS011;44240;51.840;7.258;2022-11-15T03:58:06;115.57;;;105.27;;
58446;SDS011;44240;51.840;7.258;2022-11-15T04:00:31;117.07;;;106.63;;
58446;SDS011;44240;51.840;7.258;2022-11-15T04:02:57;116.20;;;105.90;;
58446;SDS011;44240;51.840;7.258;2022-11-15T04:05:23;116.70;;;106.37;;
58446;SDS011;44240;51.840;7.258;2022-11-15T04:07:49;116.77;;;106.40;;
58446;SDS011;44240;51.840;7.258;2022-11-15T04:10:14;115.67;;;105.57;;
58446;SDS011;44240;51.840;7.258;2022-11-15T04:12:42;116.10;;;105.93;;
58446;SDS011;44240;51.840;7.258;2022-11-15T04:15:12;116.87;;;106.60;;
58446;SDS011;44240;51.840;7.258;2022-11-15T04:17:41;117.17;;;106.87;;
58446;SDS011;44240;51.840;7.258;2022-11-15T04:23:05;118.28;;;107.90;;
58446;SDS011;44240;51.840;7.258;2022-11-15T04:26:08;117.07;;;106.90;;
58446;SDS011;44240;51.840;7.258;2022-11-15T04:28:42;117.70;;;107.43;;
58446;SDS011;44240;51.840;7.258;2022-11-15T04:31:28;118.03;;;107.70;;
58446;SDS011;44240;51.840;7.258;2022-11-15T04:33:53;116.97;;;106.80;;
58446;SDS011;44240;51.840;7.258;2022-11-15T04:36:19;115.73;;;105.70;;
58446;SDS011;44240;51.840;7.258;2022-11-15T04:39:05;115.87;;;105.97;;
58446;SDS011;44240;51.840;7.258;2022-11-15T04:41:30;113.60;;;103.93;;
58446;SDS011;44240;51.840;7.258;2022-11-15T04:43:56;113.90;;;104.30;;
58446;SDS011;44240;51.840;7.258;2022-11-15T04:46:22;113.93;;;104.37;;
58446;SDS011;44240;51.840;7.258;2022-11-15T04:48:48;113.63;;;104.17;;
58446;SDS011;44240;51.840;7.258;2022-11-15T04:51:15;112.73;;;103.37;;
58446;SDS011;44240;51.840;7.258;2022-11-15T04:53:40;111.40;;;102.23;;
58446;SDS011;44240;51.840;7.258;2022-11-15T04:56:06;111.17;;;102.13;;
58446;SDS011;44240;51.840;7.258;2022-11-15T04:58:31;109.93;;;101.07;;
58446;SDS011;44240;51.840;7.258;2022-11-15T05:00:57;110.07;;;101.17;;
58446;SDS011;44240;51.840;7.258;2022-11-15T05:03:22;107.43;;;98.93;;
58446;SDS011;44240;51.840;7.258;2022-11-15T05:06:06;106.33;;;98.07;;
58446;SDS011;44240;51.840;7.258;2022-11-15T05:08:32;105.23;;;97.10;;
58446;SDS011;44240;51.840;7.258;2022-11-15T05:10:58;105.70;;;97.57;;
58446;SDS011;44240;51.840;7.258;2022-11-15T05:13:23;103.57;;;95.67;;
58446;SDS011;44240;51.840;7.258;2022-11-15T05:15:49;103.90;;;96.00;;
58446;SDS011;44240;51.840;7.258;2022-11-15T05:18:14;104.13;;;96.23;;
58446;SDS011;44240;51.840;7.258;2022-11-15T05:20:40;102.93;;;95.13;;
58446;SDS011;44240;51.840;7.258;2022-11-15T05:23:06;101.80;;;94.17;;
58446;SDS011;44240;51.840;7.258;2022-11-15T05:25:31;99.13;;;91.80;;
58446;SDS011;44240;51.840;7.258;2022-11-15T05:27:57;100.27;;;92.87;;
58446;SDS011;44240;51.840;7.258;2022-11-15T05:30:22;98.73;;;91.53;;
58446;SDS011;44240;51.840;7.258;2022-11-15T05:32:48;98.03;;;90.87;;
58446;SDS011;44240;51.840;7.258;2022-11-15T05:38:42;96.13;;;89.23;;
58446;SDS011;44240;51.840;7.258;2022-11-15T05:41:07;95.33;;;88.53;;
58446;SDS011;44240;51.840;7.258;2022-11-15T05:43:34;95.50;;;88.73;;
58446;SDS011;44240;51.840;7.258;2022-11-15T05:46:02;93.30;;;86.77;;
58446;SDS011;44240;51.840;7.258;2022-11-15T05:48:29;92.17;;;85.77;;
58446;SDS011;44240;51.840;7.258;2022-11-15T05:50:55;92.17;;;85.80;;
58446;SDS011;44240;51.840;7.258;2022-11-15T05:53:21;92.47;;;86.10;;
58446;SDS011;44240;51.840;7.258;2022-11-15T05:55:49;91.47;;;85.17;;
58446;SDS011;44240;51.840;7.258;2022-11-15T05:58:16;90.73;;;84.53;;
58446;SDS011;44240;51.840;7.258;2022-11-15T06:00:42;88.97;;;82.97;;
58446;SDS011;44240;51.840;7.258;2022-11-15T06:03:08;89.30;;;83.30;;
58446;SDS011;44240;51.840;7.258;2022-11-15T06:05:34;88.47;;;82.57;;
58446;SDS011;44240;51.840;7.258;2022-11-15T06:08:00;87.53;;;81.73;;
58446;SDS011;44240;51.840;7.258;2022-11-15T06:10:25;85.40;;;79.83;;
58446;SDS011;44240;51.840;7.258;2022-11-15T06:12:58;85.07;;;79.57;;
58446;SDS011;44240;51.840;7.258;2022-11-15T06:15:27;85.73;;;80.17;;
58446;SDS011;44240;51.840;7.258;2022-11-15T06:17:56;83.77;;;78.37;;
58446;SDS011;44240;51.840;7.258;2022-11-15T06:20:25;81.57;;;76.43;;
58446;SDS011;44240;51.840;7.258;2022-11-15T06:23:01;80.90;;;75.83;;
58446;SDS011;44240;51.840;7.258;2022-11-15T06:25:29;79.30;;;74.40;;
58446;SDS011;44240;51.840;7.258;2022-11-15T06:27:56;80.20;;;75.23;;
58446;SDS011;44240;51.840;7.258;2022-11-15T06:30:22;77.93;;;73.20;;
58446;SDS011;44240;51.840;7.258;2022-11-15T06:32:49;76.43;;;71.87;;
58446;SDS011;44240;51.840;7.258;2022-11-15T06:35:15;74.57;;;70.20;;
58446;SDS011;44240;51.840;7.258;2022-11-15T06:37:41;71.63;;;67.57;;
58446;SDS011;44240;51.840;7.258;2022-11-15T06:40:07;74.45;;;70.15;;
58446;SDS011;44240;51.840;7.258;2022-11-15T06:42:34;73.72;;;69.50;;
58446;SDS011;44240;51.840;7.258;2022-11-15T06:45:00;73.00;;;68.85;;
58446;SDS011;44240;51.840;7.258;2022-11-15T06:47:26;72.32;;;68.20;;
58446;SDS011;44240;51.840;7.258;2022-11-15T06:49:52;71.70;;;67.68;;
58446;SDS011;44240;51.840;7.258;2022-11-15T06:52:17;72.68;;;68.55;;
58446;SDS011;44240;51.840;7.258;2022-11-15T06:54:44;70.90;;;66.93;;
58446;SDS011;44240;51.840;7.258;2022-11-15T06:57:10;71.88;;;67.85;;
58446;SDS011;44240;51.840;7.258;2022-11-15T06:59:35;70.40;;;66.47;;
58446;SDS011;44240;51.840;7.258;2022-11-15T07:02:01;69.28;;;65.45;;
58446;SDS011;44240;51.840;7.258;2022-11-15T07:04:27;69.40;;;65.57;;
58446;SDS011;44240;51.840;7.258;2022-11-15T07:06:52;69.53;;;65.70;;
58446;SDS011;44240;51.840;7.258;2022-11-15T07:09:18;69.90;;;66.05;;
58446;SDS011;44240;51.840;7.258;2022-11-15T07:11:44;69.97;;;66.10;;
58446;SDS011;44240;51.840;7.258;2022-11-15T07:14:09;71.47;;;67.47;;
58446;SDS011;44240;51.840;7.258;2022-11-15T07:16:35;71.97;;;67.90;;
58446;SDS011;44240;51.840;7.258;2022-11-15T07:19:02;70.63;;;66.70;;
58446;SDS011;44240;51.840;7.258;2022-11-15T07:21:27;68.53;;;64.78;;
58446;SDS011;44240;51.840;7.258;2022-11-15T07:23:53;69.10;;;65.32;;
58446;SDS011;44240;51.840;7.258;2022-11-15T07:26:18;69.45;;;65.63;;
58446;SDS011;44240;51.840;7.258;2022-11-15T07:28:44;69.80;;;65.97;;
58446;SDS011;44240;51.840;7.258;2022-11-15T07:31:09;67.90;;;64.20;;
58446;SDS011;44240;51.840;7.258;2022-11-15T07:33:35;67.18;;;63.55;;
58446;SDS011;44240;51.840;7.258;2022-11-15T07:36:02;66.40;;;62.80;;
58446;SDS011;44240;51.840;7.258;2022-11-15T07:38:29;64.43;;;61.03;;
58446;SDS011;44240;51.840;7.258;2022-11-15T07:40:55;63.17;;;59.88;;
58446;SDS011;44240;51.840;7.258;2022-11-15T07:43:22;62.97;;;59.67;;
58446;SDS011;44240;51.840;7.258;2022-11-15T07:45:47;63.08;;;59.75;;
58446;SDS011;44240;51.840;7.258;2022-11-15T07:48:13;64.03;;;60.65;;
58446;SDS011;44240;51.840;7.258;2022-11-15T07:50:42;63.10;;;59.80;;
58446;SDS011;44240;51.840;7.258;2022-11-15T07:53:08;63.05;;;59.75;;
58446;SDS011;44240;51.840;7.258;2022-11-15T07:55:34;60.20;;;57.13;;
58446;SDS011;44240;51.840;7.258;2022-11-15T07:58:01;60.22;;;57.13;;
58446;SDS011;44240;51.840;7.258;2022-11-15T08:00:30;59.13;;;56.10;;
58446;SDS011;44240;51.840;7.258;2022-11-15T08:03:06;60.42;;;57.33;;
58446;SDS011;44240;51.840;7.258;2022-11-15T08:05:34;60.20;;;57.15;;
58446;SDS011;44240;51.840;7.258;2022-11-15T08:08:00;59.88;;;56.83;;
58446;SDS011;44240;51.840;7.258;2022-11-15T08:10:26;62.42;;;59.15;;
58446;SDS011;44240;51.840;7.258;2022-11-15T08:12:56;61.60;;;58.42;;
58446;SDS011;44240;51.840;7.258;2022-11-15T08:15:23;60.47;;;57.38;;
58446;SDS011;44240;51.840;7.258;2022-11-15T08:17:53;61.05;;;57.90;;
58446;SDS011;44240;51.840;7.258;2022-11-15T08:20:26;60.83;;;57.70;;
58446;SDS011;44240;51.840;7.258;2022-11-15T08:22:54;59.88;;;56.80;;
58446;SDS011;44240;51.840;7.258;2022-11-15T08:25:21;61.05;;;57.90;;
58446;SDS011;44240;51.840;7.258;2022-11-15T08:27:47;60.63;;;57.50;;
58446;SDS011;44240;51.840;7.258;2022-11-15T08:30:15;62.38;;;59.15;;
58446;SDS011;44240;51.840;7.258;2022-11-15T08:32:41;61.35;;;58.20;;
58446;SDS011;44240;51.840;7.258;2022-11-15T08:35:07;62.00;;;58.80;;
58446;SDS011;44240;51.840;7.258;2022-11-15T08:37:33;61.55;;;58.40;;
58446;SDS011;44240;51.840;7.258;2022-11-15T08:39:59;60.83;;;57.70;;
58446;SDS011;44240;51.840;7.258;2022-11-15T08:42:24;58.05;;;55.10;;
58446;SDS011;44240;51.840;7.258;2022-11-15T08:44:50;58.95;;;55.97;;
58446;SDS011;44240;51.840;7.258;2022-11-15T08:47:15;59.20;;;56.20;;
58446;SDS011;44240;51.840;7.258;2022-11-15T08:49:41;57.95;;;55.03;;
58446;SDS011;44240;51.840;7.258;2022-11-15T08:52:06;58.42;;;55.50;;
58446;SDS011;44240;51.840;7.258;2022-11-15T08:54:32;58.08;;;55.15;;
58446;SDS011;44240;51.840;7.258;2022-11-15T08:56:57;58.53;;;55.60;;
58446;SDS011;44240;51.840;7.258;2022-11-15T08:59:23;57.80;;;54.95;;
58446;SDS011;44240;51.840;7.258;2022-11-15T09:01:48;62.13;;;58.90;;
58446;SDS011;44240;51.840;7.258;2022-11-15T09:04:14;59.65;;;56.63;;
58446;SDS011;44240;51.840;7.258;2022-11-15T09:06:39;59.83;;;56.80;;
58446;SDS011;44240;51.840;7.258;2022-11-15T09:09:05;58.53;;;55.60;;
58446;SDS011;44240;51.840;7.258;2022-11-15T09:11:31;58.70;;;55.75;;
58446;SDS011;44240;51.840;7.258;2022-11-15T09:13:56;57.60;;;54.75;;
58446;SDS011;44240;51.840;7.258;2022-11-15T09:16:22;58.72;;;55.80;;
58446;SDS011;44240;51.840;7.258;2022-11-15T09:18:47;57.22;;;54.38;;
58446;SDS011;44240;51.840;7.258;2022-11-15T09:21:13;58.85;;;55.90;;
58446;SDS011;44240;51.840;7.258;2022-11-15T09:23:39;59.92;;;56.90;;
58446;SDS011;44240;51.840;7.258;2022-11-15T09:26:05;59.70;;;56.67;;
58446;SDS011;44240;51.840;7.258;2022-11-15T09:28:31;61.70;;;58.55;;
58446;SDS011;44240;51.840;7.258;2022-11-15T09:30:58;62.15;;;58.95;;
58446;SDS011;44240;51.840;7.258;2022-11-15T09:33:24;61.08;;;57.95;;
58446;SDS011;44240;51.840;7.258;2022-11-15T09:35:50;61.83;;;58.65;;
58446;SDS011;44240;51.840;7.258;2022-11-15T09:38:16;62.33;;;59.13;;
58446;SDS011;44240;51.840;7.258;2022-11-15T09:40:42;62.60;;;59.33;;
58446;SDS011;44240;51.840;7.258;2022-11-15T09:43:11;62.75;;;59.50;;
58446;SDS011;44240;51.840;7.258;2022-11-15T09:46:18;62.22;;;59.03;;
58446;SDS011;44240;51.840;7.258;2022-11-15T09:51:18;63.08;;;59.80;;
58446;SDS011;44240;51.840;7.258;2022-11-15T09:56:32;64.38;;;61.00;;
58446;SDS011;44240;51.840;7.258;2022-11-15T10:01:59;64.07;;;60.70;;
58446;SDS011;44240;51.840;7.258;2022-11-15T10:04:32;64.72;;;61.33;;
58446;SDS011;44240;51.840;7.258;2022-11-15T10:07:02;63.95;;;60.60;;
58446;SDS011;44240;51.840;7.258;2022-11-15T10:10:39;64.38;;;60.97;;
58446;SDS011;44240;51.840;7.258;2022-11-15T10:12:45;64.97;;;61.55;;
58446;SDS011;44240;51.840;7.258;2022-11-15T10:15:15;64.10;;;60.72;;
58446;SDS011;44240;51.840;7.258;2022-11-15T10:23:15;63.53;;;60.20;;
58446;SDS011;44240;51.840;7.258;2022-11-15T10:25:44;64.15;;;60.80;;
58446;SDS011;44240;51.840;7.258;2022-11-15T10:28:11;64.28;;;60.90;;
58446;SDS011;44240;51.840;7.258;2022-11-15T10:30:49;65.07;;;61.65;;
58446;SDS011;44240;51.840;7.258;2022-11-15T10:33:27;63.72;;;60.40;;
58446;SDS011;44240;51.840;7.258;2022-11-15T10:41:19;63.78;;;60.45;;
58446;SDS011;44240;51.840;7.258;2022-11-15T10:46:31;63.55;;;60.22;;
58446;SDS011;44240;51.840;7.258;2022-11-15T10:52:18;61.45;;;58.28;;
58446;SDS011;44240;51.840;7.258;2022-11-15T10:54:48;63.08;;;59.80;;
58446;SDS011;44240;51.840;7.258;2022-11-15T10:57:53;62.35;;;59.13;;
58446;SDS011;44240;51.840;7.258;2022-11-15T11:07:58;58.63;;;55.67;;
58446;SDS011;44240;51.840;7.258;2022-11-15T11:10:26;59.30;;;56.33;;
58446;SDS011;44240;51.840;7.258;2022-11-15T11:12:52;58.22;;;55.33;;
58446;SDS011;44240;51.840;7.258;2022-11-15T11:15:18;59.13;;;56.15;;
58446;SDS011;44240;51.840;7.258;2022-11-15T11:17:57;57.95;;;55.08;;
58446;SDS011;44240;51.840;7.258;2022-11-15T11:28:41;57.97;;;55.10;;
58446;SDS011;44240;51.840;7.258;2022-11-15T11:31:10;59.40;;;56.40;;
58446;SDS011;44240;51.840;7.258;2022-11-15T11:35:15;60.83;;;57.72;;
58446;SDS011;44240;51.840;7.258;2022-11-15T11:43:01;59.15;;;56.20;;
58446;SDS011;44240;51.840;7.258;2022-11-15T11:45:44;60.53;;;57.45;;
58446;SDS011;44240;51.840;7.258;2022-11-15T11:48:40;58.90;;;55.95;;
58446;SDS011;44240;51.840;7.258;2022-11-15T11:51:13;60.90;;;57.80;;
58446;SDS011;44240;51.840;7.258;2022-11-15T11:53:41;61.42;;;58.30;;
58446;SDS011;44240;51.840;7.258;2022-11-15T11:58:54;62.20;;;59.00;;
58446;SDS011;44240;51.840;7.258;2022-11-15T12:01:27;61.97;;;58.80;;
58446;SDS011;44240;51.840;7.258;2022-11-15T12:04:16;60.95;;;57.83;;
58446;SDS011;44240;51.840;7.258;2022-11-15T12:09:55;62.03;;;58.85;;
58446;SDS011;44240;51.840;7.258;2022-11-15T12:15:18;62.50;;;59.30;;
58446;SDS011;44240;51.840;7.258;2022-11-15T12:17:54;62.47;;;59.28;;
58446;SDS011;44240;51.840;7.258;2022-11-15T12:20:29;61.45;;;58.35;;
58446;SDS011;44240;51.840;7.258;2022-11-15T12:28:14;62.58;;;59.38;;
58446;SDS011;44240;51.840;7.258;2022-11-15T12:30:55;61.97;;;58.80;;
58446;SDS011;44240;51.840;7.258;2022-11-15T12:33:28;62.53;;;59.33;;
58446;SDS011;44240;51.840;7.258;2022-11-15T12:36:34;62.70;;;59.47;;
58446;SDS011;44240;51.840;7.258;2022-11-15T12:41:40;62.20;;;59.00;;
58446;SDS011;44240;51.840;7.258;2022-11-15T13:02:38;64.95;;;61.58;;
58446;SDS011;44240;51.840;7.258;2022-11-15T13:17:48;64.90;;;61.53;;
58446;SDS011;44240;51.840;7.258;2022-11-15T13:25:16;63.70;;;60.40;;
58446;SDS011;44240;51.840;7.258;2022-11-15T13:33:20;64.50;;;61.15;;
58446;SDS011;44240;51.840;7.258;2022-11-15T13:35:46;64.22;;;60.92;;
58446;SDS011;44240;51.840;7.258;2022-11-15T13:38:36;65.88;;;62.42;;
58446;SDS011;44240;51.840;7.258;2022-11-15T13:41:22;65.80;;;62.35;;
58446;SDS011;44240;51.840;7.258;2022-11-15T13:43:49;65.75;;;62.30;;
58446;SDS011;44240;51.840;7.258;2022-11-15T13:46:17;65.25;;;61.85;;
58446;SDS011;44240;51.840;7.258;2022-11-15T13:48:45;65.55;;;62.10;;
58446;SDS011;44240;51.840;7.258;2022-11-15T13:51:17;66.07;;;62.58;;
58446;SDS011;44240;51.840;7.258;2022-11-15T13:53:52;65.85;;;62.38;;
58446;SDS011;44240;51.840;7.258;2022-11-15T13:56:23;64.95;;;61.53;;
58446;SDS011;44240;51.840;7.258;2022-11-15T13:58:51;67.53;;;63.90;;
58446;SDS011;44240;51.840;7.258;2022-11-15T14:01:19;67.80;;;64.15;;
58446;SDS011;44240;51.840;7.258;2022-11-15T14:03:50;69.20;;;65.43;;
58446;SDS011;44240;51.840;7.258;2022-11-15T14:06:20;68.53;;;64.82;;
58446;SDS011;44240;51.840;7.258;2022-11-15T14:11:31;68.18;;;64.50;;
58446;SDS011;44240;51.840;7.258;2022-11-15T14:14:19;68.65;;;64.93;;
58446;SDS011;44240;51.840;7.258;2022-11-15T14:16:45;69.82;;;66.03;;
58446;SDS011;44240;51.840;7.258;2022-11-15T14:24:39;68.70;;;64.97;;
58446;SDS011;44240;51.840;7.258;2022-11-15T14:27:25;69.70;;;65.90;;
58446;SDS011;44240;51.840;7.258;2022-11-15T14:29:53;68.93;;;65.20;;
58446;SDS011;44240;51.840;7.258;2022-11-15T14:34:44;70.22;;;66.40;;
58446;SDS011;44240;51.840;7.258;2022-11-15T14:39:48;70.05;;;66.25;;
58446;SDS011;44240;51.840;7.258;2022-11-15T14:42:14;70.93;;;67.03;;
58446;SDS011;44240;51.840;7.258;2022-11-15T14:44:40;70.00;;;66.18;;
58446;SDS011;44240;51.840;7.258;2022-11-15T14:47:06;69.70;;;65.90;;
58446;SDS011;44240;51.840;7.258;2022-11-15T14:49:31;69.22;;;65.45;;
58446;SDS011;44240;51.840;7.258;2022-11-15T14:51:57;69.65;;;65.85;;
58446;SDS011;44240;51.840;7.258;2022-11-15T14:54:22;68.82;;;65.10;;
58446;SDS011;44240;51.840;7.258;2022-11-15T14:56:48;68.30;;;64.60;;
58446;SDS011;44240;51.840;7.258;2022-11-15T14:59:13;68.32;;;64.63;;
58446;SDS011;44240;51.840;7.258;2022-11-15T15:01:39;68.75;;;65.03;;
58446;SDS011;44240;51.840;7.258;2022-11-15T15:04:04;67.80;;;64.13;;
58446;SDS011;44240;51.840;7.258;2022-11-15T15:06:30;68.68;;;64.97;;
58446;SDS011;44240;51.840;7.258;2022-11-15T15:08:55;68.40;;;64.70;;
58446;SDS011;44240;51.840;7.258;2022-11-15T15:11:28;68.07;;;64.40;;
58446;SDS011;44240;51.840;7.258;2022-11-15T15:13:55;67.13;;;63.53;;
58446;SDS011;44240;51.840;7.258;2022-11-15T15:16:23;67.25;;;63.65;;
58446;SDS011;44240;51.840;7.258;2022-11-15T15:18:49;66.95;;;63.35;;
58446;SDS011;44240;51.840;7.258;2022-11-15T15:23:47;67.55;;;63.95;;
58446;SDS011;44240;51.840;7.258;2022-11-15T15:26:13;65.28;;;61.85;;
58446;SDS011;44240;51.840;7.258;2022-11-15T15:28:39;64.10;;;60.72;;
58446;SDS011;44240;51.840;7.258;2022-11-15T15:31:04;64.93;;;61.50;;
58446;SDS011;44240;51.840;7.258;2022-11-15T15:33:30;63.95;;;60.60;;
58446;SDS011;44240;51.840;7.258;2022-11-15T15:35:56;63.00;;;59.72;;
58446;SDS011;44240;51.840;7.258;2022-11-15T15:38:22;63.72;;;60.38;;
58446;SDS011;44240;51.840;7.258;2022-11-15T15:40:48;64.32;;;60.95;;
58446;SDS011;44240;51.840;7.258;2022-11-15T15:43:13;65.22;;;61.80;;
58446;SDS011;44240;51.840;7.258;2022-11-15T15:45:39;64.88;;;61.45;;
58446;SDS011;44240;51.840;7.258;2022-11-15T15:48:07;63.85;;;60.50;;
58446;SDS011;44240;51.840;7.258;2022-11-15T15:50:38;64.95;;;61.50;;
58446;SDS011;44240;51.840;7.258;2022-11-15T15:53:03;69.90;;;66.03;;
58446;SDS011;44240;51.840;7.258;2022-11-15T15:55:30;71.47;;;67.47;;
58446;SDS011;44240;51.840;7.258;2022-11-15T15:57:56;71.85;;;67.88;;
58446;SDS011;44240;51.840;7.258;2022-11-15T16:00:22;71.15;;;67.20;;
58446;SDS011;44240;51.840;7.258;2022-11-15T16:02:50;71.53;;;67.55;;
58446;SDS011;44240;51.840;7.258;2022-11-15T16:05:16;70.80;;;66.88;;
58446;SDS011;44240;51.840;7.258;2022-11-15T16:07:42;72.72;;;68.63;;
58446;SDS011;44240;51.840;7.258;2022-11-15T16:10:26;73.63;;;69.43;;
58446;SDS011;44240;51.840;7.258;2022-11-15T16:12:54;73.47;;;69.30;;
58446;SDS011;44240;51.840;7.258;2022-11-15T16:15:21;74.53;;;70.28;;
58446;SDS011;44240;51.840;7.258;2022-11-15T16:17:49;73.22;;;69.05;;
58446;SDS011;44240;51.840;7.258;2022-11-15T16:23:03;74.68;;;70.43;;
58446;SDS011;44240;51.840;7.258;2022-11-15T16:25:31;74.55;;;70.30;;
58446;SDS011;44240;51.840;7.258;2022-11-15T16:28:01;74.30;;;70.07;;
58446;SDS011;44240;51.840;7.258;2022-11-15T16:30:26;75.18;;;70.85;;
58446;SDS011;44240;51.840;7.258;2022-11-15T16:32:52;75.13;;;70.77;;
58446;SDS011;44240;51.840;7.258;2022-11-15T16:35:19;76.57;;;72.10;;
58446;SDS011;44240;51.840;7.258;2022-11-15T16:37:45;75.50;;;71.10;;
58446;SDS011;44240;51.840;7.258;2022-11-15T16:40:16;74.80;;;70.50;;
58446;SDS011;44240;51.840;7.258;2022-11-15T16:42:47;74.82;;;70.47;;
58446;SDS011;44240;51.840;7.258;2022-11-15T16:45:13;75.00;;;70.67;;
58446;SDS011;44240;51.840;7.258;2022-11-15T16:47:39;75.13;;;70.73;;
58446;SDS011;44240;51.840;7.258;2022-11-15T16:50:04;76.67;;;72.17;;
58446;SDS011;44240;51.840;7.258;2022-11-15T16:52:30;78.33;;;73.63;;
58446;SDS011;44240;51.840;7.258;2022-11-15T16:54:55;77.77;;;73.17;;
58446;SDS011;44240;51.840;7.258;2022-11-15T16:57:21;77.53;;;72.93;;
58446;SDS011;44240;51.840;7.258;2022-11-15T16:59:46;78.10;;;73.40;;